createdAt,value
2022-08-17T00:00:42.944Z,67.51
2022-08-17T00:03:13.607Z,67.88
2022-08-17T00:05:47.099Z,67.84
2022-08-17T00:08:17.102Z,67.74
2022-08-17T00:10:46.593Z,67.94
2022-08-17T00:13:29.406Z,68.05
2022-08-17T00:16:01.488Z,68.18
2022-08-17T00:19:01.182Z,68.26
2022-08-17T00:21:25.165Z,68.53
2022-08-17T00:23:53.705Z,68.67
2022-08-17T00:26:43.755Z,68.67
2022-08-17T00:29:10.564Z,68.57
2022-08-17T00:31:48.626Z,68.52
2022-08-17T00:34:16.997Z,69.13
2022-08-17T00:36:44.819Z,69.42
2022-08-17T00:39:12.427Z,69.72
2022-08-17T00:41:42.164Z,69.98
2022-08-17T00:44:11.928Z,70.11
2022-08-17T00:46:42.732Z,69.99
2022-08-17T00:49:13.023Z,70.11
2022-08-17T00:51:59.697Z,70.10
2022-08-17T00:54:33.276Z,69.91
2022-08-17T00:57:13.685Z,70.45
2022-08-17T00:59:47.044Z,70.50
2022-08-17T01:02:36.690Z,70.62
2022-08-17T01:05:14.939Z,70.43
2022-08-17T01:07:43.503Z,70.46
2022-08-17T01:10:58.953Z,70.80
2022-08-17T01:13:04.547Z,72.20
2022-08-17T01:15:36.648Z,72.57
2022-08-17T01:18:08.728Z,72.24
2022-08-17T01:20:48.410Z,72.97
2022-08-17T01:23:20.618Z,73.23
2022-08-17T01:25:54.952Z,73.64
2022-08-17T01:28:52.637Z,74.62
2022-08-17T01:31:12.526Z,74.28
2022-08-17T01:33:40.500Z,74.46
2022-08-17T01:36:08.822Z,74.48
2022-08-17T01:38:38.298Z,74.86
2022-08-17T01:41:11.656Z,74.93
2022-08-17T01:43:49.206Z,74.35
2022-08-17T01:46:27.927Z,74.49
2022-08-17T01:48:57.442Z,74.18
2022-08-17T01:51:32.391Z,74.04
2022-08-17T01:54:06.576Z,74.00
2022-08-17T01:56:37.407Z,73.90
2022-08-17T01:59:05.300Z,73.93
2022-08-17T02:01:34.722Z,73.89
2022-08-17T02:04:04.291Z,74.02
2022-08-17T02:06:45.097Z,74.06
2022-08-17T02:09:25.491Z,74.00
2022-08-17T02:11:56.931Z,73.99
2022-08-17T02:14:25.834Z,73.77
2022-08-17T02:16:54.078Z,73.71
2022-08-17T02:19:22.418Z,73.71
2022-08-17T02:21:52.034Z,73.64
2022-08-17T02:24:58.170Z,73.46
2022-08-17T02:27:25.686Z,73.55
2022-08-17T02:29:53.517Z,73.36
2022-08-17T02:32:27.863Z,73.40
2022-08-17T02:34:58.078Z,73.39
2022-08-17T02:37:27.538Z,73.38
2022-08-17T02:39:59.484Z,73.43
2022-08-17T02:42:31.465Z,73.46
2022-08-17T02:45:00.621Z,73.55
2022-08-17T02:47:29.098Z,73.60
2022-08-17T02:49:56.995Z,73.71
2022-08-17T02:52:42.496Z,73.69
2022-08-17T02:55:15.940Z,74.03
2022-08-17T02:57:44.317Z,74.31
2022-08-17T03:00:17.132Z,74.19
2022-08-17T03:02:45.493Z,74.16
2022-08-17T03:05:17.134Z,74.35
2022-08-17T03:07:44.806Z,73.89
2022-08-17T03:10:13.471Z,73.98
2022-08-17T03:12:43.171Z,73.91
2022-08-17T03:15:20.619Z,73.60
2022-08-17T03:17:49.165Z,73.90
2022-08-17T03:20:17.151Z,73.96
2022-08-17T03:22:53.152Z,74.11
2022-08-17T03:25:25.499Z,74.23
2022-08-17T03:27:53.691Z,74.21
2022-08-17T03:30:22.963Z,74.27
2022-08-17T03:32:54.719Z,74.37
2022-08-17T03:35:25.788Z,74.73
2022-08-17T03:38:00.297Z,74.82
2022-08-17T03:40:39.866Z,74.65
2022-08-17T03:43:19.842Z,74.66
2022-08-17T03:46:02.413Z,74.56
2022-08-17T03:48:46.254Z,74.52
2022-08-17T03:51:33.485Z,74.54
2022-08-17T03:54:17.628Z,74.74
2022-08-17T03:57:13.443Z,74.93
2022-08-17T03:59:42.327Z,75.25
2022-08-17T04:02:19.464Z,75.14
2022-08-17T04:04:50.590Z,75.17
2022-08-17T04:07:20.681Z,75.07
2022-08-17T04:09:48.735Z,75.17
2022-08-17T04:12:18.875Z,75.18
2022-08-17T04:14:52.076Z,75.31
2022-08-17T04:17:24.735Z,75.49
2022-08-17T04:19:53.668Z,75.56
2022-08-17T04:22:32.656Z,75.48
2022-08-17T04:25:14.342Z,75.49
2022-08-17T04:27:42.341Z,75.51
2022-08-17T04:30:10.651Z,75.32
2022-08-17T04:33:04.699Z,75.59
2022-08-17T04:35:38.884Z,75.79
2022-08-17T04:38:08.518Z,75.76
2022-08-17T04:40:52.572Z,75.93
2022-08-17T04:43:22.340Z,76.00
2022-08-17T04:45:56.268Z,76.07
2022-08-17T04:48:29.844Z,76.22
2022-08-17T04:51:11.379Z,76.24
2022-08-17T04:53:40.932Z,76.49
2022-08-17T04:56:11.809Z,76.28
2022-08-17T04:58:46.750Z,76.52
2022-08-17T05:01:16.316Z,76.61
2022-08-17T05:03:56.514Z,76.68
2022-08-17T05:06:25.292Z,76.72
2022-08-17T05:08:53.730Z,76.79
2022-08-17T05:11:22.791Z,76.81
2022-08-17T05:13:50.572Z,76.81
2022-08-17T05:16:21.188Z,76.88
2022-08-17T05:18:49.301Z,76.85
2022-08-17T05:21:18.012Z,76.78
2022-08-17T05:23:50.346Z,76.70
2022-08-17T05:26:26.402Z,76.69
2022-08-17T05:28:57.259Z,76.58
2022-08-17T05:31:29.344Z,76.52
2022-08-17T05:33:58.111Z,76.63
2022-08-17T05:36:42.267Z,76.61
2022-08-17T05:39:16.319Z,76.67
2022-08-17T05:41:47.720Z,76.67
2022-08-17T05:44:16.988Z,76.61
2022-08-17T05:46:53.742Z,76.89
2022-08-17T05:49:27.436Z,76.77
2022-08-17T05:52:20.619Z,76.84
2022-08-17T05:55:30.448Z,76.75
2022-08-17T05:58:24.765Z,76.74
2022-08-17T06:01:17.607Z,76.72
2022-08-17T06:03:59.318Z,76.88
2022-08-17T06:06:58.081Z,76.73
2022-08-17T06:09:33.462Z,76.87
2022-08-17T06:12:32.033Z,76.69
2022-08-17T06:15:01.282Z,76.80
2022-08-17T06:17:30.023Z,76.62
2022-08-17T06:20:03.296Z,76.70
2022-08-17T06:22:38.067Z,76.69
2022-08-17T06:25:22.502Z,76.62
2022-08-17T06:27:56.578Z,76.63
2022-08-17T06:30:58.550Z,76.50
2022-08-17T06:33:22.439Z,76.29
2022-08-17T06:36:17.764Z,76.08
2022-08-17T06:39:17.511Z,75.99
2022-08-17T06:42:09.522Z,75.68
2022-08-17T06:45:17.937Z,75.19
2022-08-17T06:48:04.342Z,75.04
2022-08-17T06:50:40.628Z,74.77
2022-08-17T06:53:30.180Z,74.48
2022-08-17T06:56:19.648Z,74.28
2022-08-17T06:58:48.236Z,74.27
2022-08-17T07:01:24.796Z,74.44
2022-08-17T07:04:05.170Z,74.23
2022-08-17T07:06:48.876Z,73.95
2022-08-17T07:09:37.367Z,73.75
2022-08-17T07:12:16.005Z,73.42
2022-08-17T07:14:58.602Z,73.50
2022-08-17T07:17:47.058Z,73.28
2022-08-17T07:20:22.747Z,73.18
2022-08-17T07:23:08.990Z,73.06
2022-08-17T07:25:36.683Z,72.87
2022-08-17T07:28:07.374Z,72.80
2022-08-17T07:30:45.789Z,72.68
2022-08-17T07:33:19.920Z,72.31
2022-08-17T07:35:49.852Z,72.07
2022-08-17T07:38:28.132Z,71.99
2022-08-17T07:41:02.320Z,71.66
2022-08-17T07:43:31.212Z,71.38
2022-08-17T07:46:31.082Z,71.38
2022-08-17T07:49:17.466Z,71.13
2022-08-17T07:51:47.911Z,70.89
2022-08-17T07:54:15.640Z,70.60
2022-08-17T07:56:49.953Z,69.81
2022-08-17T07:59:30.000Z,69.83
2022-08-17T08:02:28.974Z,69.86
2022-08-17T08:05:06.741Z,69.63
2022-08-17T08:07:52.276Z,69.44
2022-08-17T08:10:38.767Z,69.61
2022-08-17T08:13:29.525Z,69.02
2022-08-17T08:16:31.350Z,69.08
2022-08-17T08:19:01.402Z,69.18
2022-08-17T08:21:36.552Z,68.98
2022-08-17T08:24:10.771Z,68.87
2022-08-17T08:26:48.987Z,68.95
2022-08-17T08:29:35.590Z,68.76
2022-08-17T08:32:11.253Z,68.07
2022-08-17T08:35:02.715Z,67.73
2022-08-17T08:38:02.226Z,67.68
2022-08-17T08:40:57.033Z,67.38
2022-08-17T08:43:43.590Z,66.76
2022-08-17T08:46:20.119Z,66.36
2022-08-17T08:49:12.423Z,66.16
2022-08-17T08:51:56.201Z,65.91
2022-08-17T08:54:55.770Z,65.66
2022-08-17T08:57:34.557Z,65.46
2022-08-17T09:00:12.510Z,65.14
2022-08-17T09:03:05.151Z,64.34
2022-08-17T09:06:06.054Z,63.32
2022-08-17T09:09:36.305Z,63.71
2022-08-17T09:12:19.956Z,63.92
2022-08-17T09:14:57.819Z,63.79
2022-08-17T09:17:47.996Z,63.78
2022-08-17T09:20:27.164Z,63.82
2022-08-17T09:23:03.264Z,63.63
2022-08-17T09:25:34.880Z,63.28
2022-08-17T09:28:20.766Z,63.06
2022-08-17T09:30:53.011Z,62.96
2022-08-17T09:33:28.684Z,62.84
2022-08-17T09:36:15.605Z,62.88
2022-08-17T09:39:05.183Z,62.36
2022-08-17T09:41:48.523Z,61.83
2022-08-17T09:44:31.060Z,61.17
2022-08-17T09:47:19.651Z,60.96
2022-08-17T09:49:55.051Z,61.08
2022-08-17T09:52:30.349Z,60.40
2022-08-17T09:55:00.146Z,60.89
2022-08-17T09:57:43.897Z,60.35
2022-08-17T10:00:27.249Z,59.69
2022-08-17T10:03:11.693Z,59.19
2022-08-17T10:05:49.084Z,59.34
2022-08-17T10:08:37.450Z,59.39
2022-08-17T10:11:53.021Z,59.20
2022-08-17T10:14:53.451Z,58.95
2022-08-17T10:17:55.523Z,58.63
2022-08-17T10:20:35.972Z,57.12
2022-08-17T10:23:28.958Z,57.26
2022-08-17T10:26:13.590Z,57.26
2022-08-17T10:29:00.204Z,57.11
2022-08-17T10:31:35.462Z,57.26
2022-08-17T10:34:41.184Z,56.93
2022-08-17T10:37:31.508Z,57.00
2022-08-17T10:40:21.227Z,56.82
2022-08-17T10:43:00.536Z,56.65
2022-08-17T10:45:35.238Z,56.22
2022-08-17T10:48:06.920Z,56.11
2022-08-17T10:50:57.621Z,55.81
2022-08-17T10:53:31.454Z,55.52
2022-08-17T10:56:16.097Z,55.01
2022-08-17T10:59:00.732Z,54.57
2022-08-17T11:01:34.250Z,54.83
2022-08-17T11:04:27.290Z,54.55
2022-08-17T11:07:03.975Z,53.54
2022-08-17T11:09:50.463Z,53.78
2022-08-17T11:12:40.164Z,53.53
2022-08-17T11:15:17.608Z,53.44
2022-08-17T11:18:17.341Z,53.43
2022-08-17T11:20:55.456Z,52.75
2022-08-17T11:23:39.831Z,52.75
2022-08-17T11:26:25.952Z,52.65
2022-08-17T11:29:01.384Z,52.47
2022-08-17T11:31:38.498Z,52.37
2022-08-17T11:34:19.050Z,52.72
2022-08-17T11:36:49.737Z,52.92
2022-08-17T11:39:36.820Z,52.75
2022-08-17T11:42:11.718Z,52.74
2022-08-17T11:44:51.288Z,52.81
2022-08-17T11:48:23.825Z,52.48
2022-08-17T11:51:22.407Z,52.25
2022-08-17T11:53:49.981Z,52.10
2022-08-17T11:56:51.065Z,51.97
2022-08-17T11:59:36.322Z,51.77
2022-08-17T12:02:31.438Z,51.75
2022-08-17T12:05:17.838Z,51.54
2022-08-17T12:08:08.489Z,51.91
2022-08-17T12:10:48.187Z,51.92
2022-08-17T12:13:18.584Z,52.33
2022-08-17T12:15:50.675Z,52.81
2022-08-17T12:18:25.779Z,52.88
2022-08-17T12:21:26.318Z,53.09
2022-08-17T12:24:00.797Z,53.31
2022-08-17T12:26:33.216Z,53.01
2022-08-17T12:29:06.314Z,52.80
2022-08-17T12:31:44.256Z,52.40
2022-08-17T12:34:16.919Z,52.18
2022-08-17T12:36:46.225Z,52.32
2022-08-17T12:39:21.358Z,53.72
2022-08-17T12:41:54.712Z,54.79
2022-08-17T12:44:28.026Z,55.40
2022-08-17T12:46:58.684Z,55.36
2022-08-17T12:49:35.460Z,56.77
2022-08-17T12:52:19.071Z,57.66
2022-08-17T12:55:11.013Z,58.37
2022-08-17T12:57:38.626Z,59.03
2022-08-17T13:00:17.387Z,59.99
2022-08-17T13:02:49.357Z,60.41
2022-08-17T13:05:37.659Z,61.19
2022-08-17T13:08:24.550Z,61.88
2022-08-17T13:10:58.222Z,62.85
2022-08-17T13:13:28.829Z,63.04
2022-08-17T13:16:14.230Z,63.38
2022-08-17T13:18:44.996Z,63.63
2022-08-17T13:21:19.975Z,63.58
2022-08-17T13:24:07.768Z,63.84
2022-08-17T13:26:54.579Z,64.12
2022-08-17T13:29:30.625Z,64.71
2022-08-17T13:32:04.806Z,64.88
2022-08-17T13:35:07.729Z,65.66
2022-08-17T13:37:32.517Z,66.19
2022-08-17T13:40:19.103Z,66.47
2022-08-17T13:42:52.886Z,66.69
2022-08-17T13:45:44.681Z,67.25
2022-08-17T13:48:15.400Z,67.23
2022-08-17T13:50:47.526Z,66.27
2022-08-17T13:53:35.394Z,65.60
2022-08-17T13:56:33.391Z,65.74
2022-08-17T13:59:53.643Z,65.52
2022-08-17T14:02:14.810Z,65.85
2022-08-17T14:04:44.436Z,65.79
2022-08-17T14:07:12.455Z,65.65
2022-08-17T14:09:41.859Z,65.77
2022-08-17T14:12:12.410Z,65.26
2022-08-17T14:14:42.504Z,65.02
2022-08-17T14:17:12.038Z,65.05
2022-08-17T14:19:40.078Z,64.93
2022-08-17T14:22:17.399Z,65.29
2022-08-17T14:24:45.745Z,65.15
2022-08-17T14:27:13.354Z,65.59
2022-08-17T14:29:41.202Z,65.64
2022-08-17T14:32:18.590Z,65.56
2022-08-17T14:34:47.376Z,65.75
2022-08-17T14:37:16.966Z,65.96
2022-08-17T14:39:49.580Z,66.04
2022-08-17T14:42:18.453Z,66.29
2022-08-17T14:44:46.094Z,66.44
2022-08-17T14:47:14.786Z,66.68
2022-08-17T14:49:43.543Z,66.62
2022-08-17T14:52:21.401Z,66.90
2022-08-17T14:54:53.645Z,66.86
2022-08-17T14:57:34.023Z,66.77
2022-08-17T15:00:03.977Z,67.00
2022-08-17T15:02:53.526Z,67.20
2022-08-17T15:05:27.306Z,67.90
2022-08-17T15:07:55.724Z,67.57
2022-08-17T15:10:25.912Z,68.02
2022-08-17T15:12:54.402Z,68.46
2022-08-17T15:15:22.688Z,68.94
2022-08-17T15:17:51.406Z,69.45
2022-08-17T15:20:23.942Z,69.52
2022-08-17T15:22:55.912Z,69.54
2022-08-17T15:25:27.498Z,69.09
2022-08-17T15:27:55.770Z,69.08
2022-08-17T15:30:25.866Z,69.06
2022-08-17T15:32:56.497Z,69.01
2022-08-17T15:35:29.099Z,69.10
2022-08-17T15:38:07.941Z,69.24
2022-08-17T15:40:44.370Z,69.25
2022-08-17T15:43:23.470Z,69.28
2022-08-17T15:46:01.668Z,69.17
2022-08-17T15:48:47.585Z,69.14
2022-08-17T15:51:17.836Z,69.21
2022-08-17T15:53:51.838Z,69.12
2022-08-17T15:56:19.992Z,69.26
2022-08-17T15:58:48.582Z,69.24
2022-08-17T16:02:15.404Z,69.57
2022-08-17T16:04:30.054Z,69.54
2022-08-17T16:06:55.605Z,69.32
2022-08-17T16:09:23.314Z,68.32
2022-08-17T16:11:53.847Z,67.50
2022-08-17T16:14:32.441Z,67.01
2022-08-17T16:17:04.627Z,66.03
2022-08-17T16:19:34.133Z,65.83
2022-08-17T16:22:02.670Z,65.95
2022-08-17T16:24:31.381Z,66.09
2022-08-17T16:26:59.271Z,66.03
2022-08-17T16:29:27.892Z,66.06
2022-08-17T16:31:56.715Z,66.24
2022-08-17T16:34:24.487Z,66.28
2022-08-17T16:36:55.744Z,66.53
2022-08-17T16:39:26.765Z,66.97
2022-08-17T16:41:56.021Z,66.94
2022-08-17T16:44:30.823Z,67.31
2022-08-17T16:47:00.720Z,67.69
2022-08-17T16:49:37.032Z,68.07
2022-08-17T16:52:11.080Z,68.44
2022-08-17T16:54:43.439Z,68.44
2022-08-17T16:57:13.099Z,68.54
2022-08-17T16:59:43.911Z,68.82
2022-08-17T17:02:23.469Z,68.96
2022-08-17T17:05:11.391Z,68.96
2022-08-17T17:08:12.780Z,69.44
2022-08-17T17:10:45.854Z,69.99
2022-08-17T17:13:31.027Z,69.95
2022-08-17T17:16:06.054Z,70.49
2022-08-17T17:18:47.970Z,70.43
2022-08-17T17:21:19.766Z,70.49
2022-08-17T17:23:56.080Z,70.66
2022-08-17T17:26:50.553Z,70.91
2022-08-17T17:29:48.784Z,70.96
2022-08-17T17:32:20.929Z,71.18
2022-08-17T17:35:00.773Z,71.35
2022-08-17T17:37:33.751Z,71.57
2022-08-17T17:40:15.435Z,71.42
2022-08-17T17:42:44.536Z,71.42
2022-08-17T17:45:25.725Z,71.55
2022-08-17T17:47:53.624Z,71.72
2022-08-17T17:50:40.079Z,71.78
2022-08-17T17:53:15.430Z,71.95
2022-08-17T17:55:51.769Z,72.01
2022-08-17T17:58:24.625Z,72.24
2022-08-17T18:01:24.259Z,72.42
2022-08-17T18:04:16.978Z,72.36
2022-08-17T18:07:04.736Z,72.39
2022-08-17T18:09:51.934Z,72.71
2022-08-17T18:12:37.630Z,73.10
2022-08-17T18:15:37.165Z,73.27
2022-08-17T18:18:37.880Z,73.55
2022-08-17T18:21:16.370Z,74.05
2022-08-17T18:24:02.072Z,74.11
2022-08-17T18:26:32.381Z,74.19
2022-08-17T18:29:02.469Z,74.39
2022-08-17T18:31:30.053Z,74.28
2022-08-17T18:34:45.780Z,74.66
2022-08-17T18:37:26.409Z,74.82
2022-08-17T18:39:54.175Z,74.89
2022-08-17T18:42:28.699Z,74.84
2022-08-17T18:44:56.431Z,74.87
2022-08-17T18:47:27.845Z,74.63
2022-08-17T18:50:19.484Z,74.50
2022-08-17T18:52:48.530Z,74.80
2022-08-17T18:55:22.497Z,74.62
2022-08-17T18:57:53.948Z,74.67
2022-08-17T19:00:39.268Z,74.79
2022-08-17T19:03:25.487Z,74.67
2022-08-17T19:06:21.932Z,74.74
2022-08-17T19:08:49.541Z,74.91
2022-08-17T19:11:23.866Z,75.14
2022-08-17T19:14:00.814Z,75.35
2022-08-17T19:16:54.014Z,75.44
2022-08-17T19:19:45.331Z,75.70
2022-08-17T19:22:28.511Z,75.89
2022-08-17T19:25:05.939Z,76.39
2022-08-17T19:27:49.199Z,76.48
2022-08-17T19:30:17.824Z,76.74
2022-08-17T19:32:45.754Z,76.95
2022-08-17T19:35:17.488Z,76.95
2022-08-17T19:38:22.078Z,77.24
2022-08-17T19:41:21.682Z,77.35
2022-08-17T19:44:11.507Z,77.42
2022-08-17T19:47:12.062Z,77.63
2022-08-17T19:49:52.235Z,77.65
2022-08-17T19:52:46.512Z,77.60
2022-08-17T19:55:24.522Z,77.60
2022-08-17T19:58:10.306Z,77.76
2022-08-17T20:00:47.718Z,77.63
2022-08-17T20:03:22.020Z,77.73
2022-08-17T20:06:12.219Z,77.61
2022-08-17T20:08:53.839Z,77.42
2022-08-17T20:11:33.319Z,77.61
2022-08-17T20:14:32.822Z,77.67
2022-08-17T20:17:03.021Z,77.75
2022-08-17T20:19:36.551Z,77.60
2022-08-17T20:22:11.776Z,77.63
2022-08-17T20:24:52.523Z,77.67
2022-08-17T20:27:47.761Z,77.81
2022-08-17T20:30:23.963Z,78.14
2022-08-17T20:32:55.446Z,78.22
2022-08-17T20:35:35.387Z,78.14
2022-08-17T20:38:07.029Z,78.18
2022-08-17T20:40:36.637Z,78.19
2022-08-17T20:43:43.098Z,78.28
2022-08-17T20:46:26.747Z,78.63
2022-08-17T20:49:21.695Z,78.90
2022-08-17T20:52:08.354Z,78.79
2022-08-17T20:54:57.898Z,78.70
2022-08-17T20:57:34.294Z,78.86
2022-08-17T21:00:33.883Z,78.75
2022-08-17T21:03:49.176Z,78.70
2022-08-17T21:06:21.230Z,78.73
2022-08-17T21:09:13.077Z,78.78
2022-08-17T21:12:02.797Z,78.91
2022-08-17T21:15:03.612Z,78.88
2022-08-17T21:17:43.409Z,78.94
2022-08-17T21:20:39.579Z,78.80
2022-08-17T21:23:26.102Z,78.99
2022-08-17T21:26:17.418Z,79.14
2022-08-17T21:29:30.402Z,79.05
2022-08-17T21:32:01.604Z,78.95
2022-08-17T21:34:35.868Z,78.91
2022-08-17T21:37:42.000Z,78.74
2022-08-17T21:40:18.739Z,78.77
2022-08-17T21:42:50.518Z,78.75
2022-08-17T21:45:22.194Z,78.73
2022-08-17T21:48:19.526Z,78.67
2022-08-17T21:51:10.211Z,78.76
2022-08-17T21:53:44.640Z,78.65
2022-08-17T21:56:22.051Z,78.81
2022-08-17T21:58:57.159Z,78.56
2022-08-17T22:01:42.857Z,78.62
2022-08-17T22:04:11.552Z,78.39
2022-08-17T22:06:56.685Z,78.54
2022-08-17T22:09:46.888Z,78.33
2022-08-17T22:12:22.064Z,78.43
2022-08-17T22:14:54.213Z,78.49
2022-08-17T22:17:39.988Z,78.48
2022-08-17T22:20:11.471Z,78.17
2022-08-17T22:23:14.964Z,78.37
2022-08-17T22:26:06.070Z,78.42
2022-08-17T22:28:49.845Z,78.52
2022-08-17T22:31:26.678Z,78.35
2022-08-17T22:34:14.350Z,78.42
2022-08-17T22:36:42.540Z,78.47
2022-08-17T22:39:10.173Z,78.48
2022-08-17T22:41:55.643Z,78.46
2022-08-17T22:44:29.954Z,78.53
2022-08-17T22:47:13.470Z,78.48
2022-08-17T22:49:53.797Z,78.61
2022-08-17T22:52:56.113Z,78.65
2022-08-17T22:55:40.379Z,78.48
2022-08-17T22:58:30.958Z,78.47
2022-08-17T23:01:23.056Z,78.30
2022-08-17T23:04:03.981Z,78.22
2022-08-17T23:06:33.773Z,78.21
2022-08-17T23:09:04.016Z,78.20
2022-08-17T23:11:48.736Z,78.15
2022-08-17T23:14:19.751Z,78.45
2022-08-17T23:16:49.978Z,78.32
2022-08-17T23:19:20.798Z,78.22
2022-08-17T23:21:53.697Z,78.29
2022-08-17T23:24:27.464Z,78.38
2022-08-17T23:26:57.378Z,78.41
2022-08-17T23:29:29.154Z,78.53
2022-08-17T23:31:59.938Z,78.69
2022-08-17T23:34:28.341Z,78.64
2022-08-17T23:36:56.010Z,78.41
2022-08-17T23:39:28.066Z,78.43
2022-08-17T23:41:58.712Z,78.47
2022-08-17T23:44:28.636Z,78.42
2022-08-17T23:46:57.213Z,78.43
2022-08-17T23:49:25.220Z,78.65
2022-08-17T23:51:56.551Z,78.82
2022-08-17T23:54:43.779Z,78.86
2022-08-17T23:57:13.494Z,78.95
2022-08-17T23:59:43.700Z,79.16
